createdAt,value
2023-11-13T00:01:52.745Z,7.26
2023-11-13T00:04:23.692Z,7.24
2023-11-13T00:06:54.250Z,7.24
2023-11-13T00:09:25.286Z,7.22
2023-11-13T00:11:55.774Z,7.18
2023-11-13T00:14:27.296Z,7.36
2023-11-13T00:16:58.678Z,7.38
2023-11-13T00:19:32.025Z,7.30
2023-11-13T00:22:03.341Z,7.25
2023-11-13T00:24:33.964Z,7.33
2023-11-13T00:27:04.644Z,7.32
2023-11-13T00:29:35.320Z,7.32
2023-11-13T00:32:06.195Z,7.26
2023-11-13T00:34:36.737Z,7.23
2023-11-13T00:37:07.199Z,7.27
2023-11-13T00:39:38.489Z,7.30
2023-11-13T00:42:10.745Z,7.28
2023-11-13T00:44:41.268Z,7.24
2023-11-13T00:47:11.744Z,7.34
2023-11-13T00:49:42.243Z,7.32
2023-11-13T00:52:12.822Z,7.23
2023-11-13T00:54:43.383Z,7.26
2023-11-13T00:57:14.085Z,7.30
2023-11-13T00:59:44.625Z,7.40
2023-11-13T01:02:15.088Z,7.22
2023-11-13T01:04:46.496Z,7.32
2023-11-13T01:07:18.731Z,7.29
2023-11-13T01:09:49.254Z,7.28
2023-11-13T01:12:21.431Z,7.26
2023-11-13T01:14:52.512Z,7.30
2023-11-13T01:17:23.346Z,7.24
2023-11-13T01:19:54.307Z,7.25
2023-11-13T01:22:24.991Z,7.26
2023-11-13T01:24:55.546Z,7.24
2023-11-13T01:27:26.365Z,7.23
2023-11-13T01:29:57.286Z,7.32
2023-11-13T01:32:27.952Z,7.26
2023-11-13T01:34:58.877Z,7.18
2023-11-13T01:37:30.047Z,7.20
2023-11-13T01:40:03.931Z,7.30
2023-11-13T01:42:34.437Z,7.29
2023-11-13T01:45:06.130Z,7.31
2023-11-13T01:47:37.770Z,7.32
2023-11-13T01:50:10.339Z,7.26
2023-11-13T01:52:42.274Z,7.20
2023-11-13T01:55:13.840Z,7.26
2023-11-13T01:57:44.633Z,7.29
2023-11-13T02:00:16.289Z,7.32
2023-11-13T02:02:49.482Z,7.24
2023-11-13T02:05:21.800Z,7.34
2023-11-13T02:07:54.496Z,7.12
2023-11-13T02:10:27.621Z,7.14
2023-11-13T02:12:58.351Z,7.24
2023-11-13T02:15:28.878Z,7.09
2023-11-13T02:18:04.261Z,7.09
2023-11-13T02:20:35.829Z,6.99
2023-11-13T02:23:07.247Z,6.93
2023-11-13T02:25:42.374Z,7.00
2023-11-13T02:28:13.141Z,6.89
2023-11-13T02:30:43.623Z,6.92
2023-11-13T02:33:14.105Z,6.84
2023-11-13T02:35:44.941Z,6.84
2023-11-13T02:38:15.412Z,6.98
2023-11-13T02:40:46.088Z,6.94
2023-11-13T02:43:16.748Z,6.90
2023-11-13T02:45:48.757Z,6.95
2023-11-13T02:48:19.532Z,6.94
2023-11-13T02:50:52.503Z,6.97
2023-11-13T02:53:22.337Z,6.98
2023-11-13T02:55:54.260Z,7.07
2023-11-13T02:58:24.864Z,6.99
2023-11-13T03:00:56.029Z,7.06
2023-11-13T03:03:29.070Z,6.97
2023-11-13T03:05:59.645Z,7.08
2023-11-13T03:08:30.568Z,6.96
2023-11-13T03:11:01.087Z,7.06
2023-11-13T03:13:31.892Z,7.04
2023-11-13T03:16:02.562Z,6.95
2023-11-13T03:18:32.962Z,6.92
2023-11-13T03:21:05.161Z,6.88
2023-11-13T03:23:35.805Z,6.84
2023-11-13T03:26:06.350Z,6.86
2023-11-13T03:28:36.910Z,6.94
2023-11-13T03:31:09.198Z,6.80
2023-11-13T03:33:39.704Z,6.76
2023-11-13T03:36:10.705Z,6.89
2023-11-13T03:38:41.359Z,7.05
2023-11-13T03:41:12.141Z,7.13
2023-11-13T03:43:43.428Z,7.06
2023-11-13T03:46:14.160Z,7.00
2023-11-13T03:48:44.622Z,7.00
2023-11-13T03:51:17.919Z,7.04
2023-11-13T03:53:47.223Z,6.80
2023-11-13T03:56:17.715Z,6.93
2023-11-13T03:58:48.578Z,6.88
2023-11-13T04:01:20.684Z,6.84
2023-11-13T04:03:51.384Z,6.88
2023-11-13T04:06:21.942Z,6.78
2023-11-13T04:08:52.442Z,6.84
2023-11-13T04:11:23.314Z,6.64
2023-11-13T04:13:54.767Z,6.63
2023-11-13T04:16:25.430Z,6.56
2023-11-13T04:18:55.997Z,6.52
2023-11-13T04:21:26.414Z,6.53
2023-11-13T04:23:56.952Z,6.68
2023-11-13T04:26:27.773Z,6.60
2023-11-13T04:28:58.329Z,6.58
2023-11-13T04:31:29.995Z,6.53
2023-11-13T04:34:02.145Z,6.60
2023-11-13T04:36:32.700Z,6.46
2023-11-13T04:39:03.314Z,6.44
2023-11-13T04:41:33.943Z,6.40
2023-11-13T04:44:05.312Z,6.38
2023-11-13T04:46:36.668Z,6.35
2023-11-13T04:49:07.320Z,6.32
2023-11-13T04:51:38.317Z,6.40
2023-11-13T04:54:08.923Z,6.44
2023-11-13T04:56:39.366Z,6.30
2023-11-13T04:59:11.590Z,6.34
2023-11-13T05:01:42.319Z,6.32
2023-11-13T05:04:13.518Z,6.26
2023-11-13T05:06:44.390Z,6.14
2023-11-13T05:09:16.214Z,6.07
2023-11-13T05:11:46.763Z,6.07
2023-11-13T05:14:17.352Z,6.14
2023-11-13T05:16:51.423Z,6.16
2023-11-13T05:19:21.692Z,6.11
2023-11-13T05:21:52.381Z,6.22
2023-11-13T05:24:26.074Z,6.19
2023-11-13T05:26:58.136Z,6.19
2023-11-13T05:29:29.059Z,6.10
2023-11-13T05:32:04.482Z,6.22
2023-11-13T05:34:35.067Z,6.22
2023-11-13T05:37:05.844Z,6.16
2023-11-13T05:39:37.597Z,6.70
2023-11-13T05:42:09.071Z,6.32
2023-11-13T05:44:42.559Z,6.30
2023-11-13T05:47:13.715Z,6.21
2023-11-13T05:49:46.777Z,6.15
2023-11-13T05:52:19.072Z,6.11
2023-11-13T05:54:50.382Z,6.08
2023-11-13T05:57:21.457Z,6.10
2023-11-13T05:59:51.933Z,6.06
2023-11-13T06:02:22.706Z,5.92
2023-11-13T06:04:53.291Z,5.89
2023-11-13T06:07:25.348Z,5.86
2023-11-13T06:09:56.387Z,5.86
2023-11-13T06:12:26.909Z,5.77
2023-11-13T06:14:57.425Z,5.84
2023-11-13T06:17:28.378Z,5.79
2023-11-13T06:19:58.908Z,5.82
2023-11-13T06:22:29.527Z,5.82
2023-11-13T06:25:00.934Z,5.80
2023-11-13T06:27:31.510Z,5.92
2023-11-13T06:30:04.230Z,5.89
2023-11-13T06:32:34.827Z,5.88
2023-11-13T06:35:07.208Z,5.90
2023-11-13T06:37:38.158Z,5.94
2023-11-13T06:40:09.856Z,5.98
2023-11-13T06:42:40.750Z,5.91
2023-11-13T06:45:13.041Z,5.86
2023-11-13T06:47:44.275Z,5.90
2023-11-13T06:50:15.435Z,5.87
2023-11-13T06:52:46.011Z,5.94
2023-11-13T06:55:17.210Z,5.89
2023-11-13T06:57:49.524Z,5.83
2023-11-13T07:00:20.621Z,5.88
2023-11-13T07:02:52.086Z,5.83
2023-11-13T07:05:23.391Z,5.74
2023-11-13T07:07:56.361Z,5.78
2023-11-13T07:10:30.755Z,6.06
2023-11-13T07:13:01.417Z,6.08
2023-11-13T07:15:33.375Z,6.08
2023-11-13T07:18:05.506Z,6.45
2023-11-13T07:20:37.398Z,6.36
2023-11-13T07:23:09.310Z,6.42
2023-11-13T07:25:39.858Z,6.57
2023-11-13T07:28:11.821Z,6.68
2023-11-13T07:30:42.333Z,6.57
2023-11-13T07:33:12.974Z,6.66
2023-11-13T07:35:45.105Z,6.60
2023-11-13T07:38:15.534Z,6.71
2023-11-13T07:40:46.088Z,6.60
2023-11-13T07:43:17.836Z,6.67
2023-11-13T07:45:49.463Z,6.48
2023-11-13T07:48:20.544Z,6.60
2023-11-13T07:50:57.708Z,6.58
2023-11-13T07:53:24.385Z,6.66
2023-11-13T07:55:55.557Z,6.75
2023-11-13T07:58:27.180Z,6.72
2023-11-13T08:00:58.503Z,7.12
2023-11-13T08:03:30.242Z,6.87
2023-11-13T08:06:01.071Z,7.02
2023-11-13T08:08:31.756Z,6.97
2023-11-13T08:11:04.402Z,6.88
2023-11-13T08:13:36.293Z,6.90
2023-11-13T08:16:07.424Z,6.78
2023-11-13T08:18:39.812Z,6.60
2023-11-13T08:21:11.429Z,6.74
2023-11-13T08:23:42.124Z,6.82
2023-11-13T08:26:14.290Z,6.68
2023-11-13T08:28:45.672Z,6.97
2023-11-13T08:31:17.567Z,6.90
2023-11-13T08:33:48.869Z,6.91
2023-11-13T08:36:23.272Z,7.09
2023-11-13T08:38:55.917Z,7.18
2023-11-13T08:41:29.778Z,7.05
2023-11-13T08:44:02.290Z,6.86
2023-11-13T08:46:35.160Z,6.76
2023-11-13T08:49:07.447Z,6.80
2023-11-13T08:51:39.583Z,6.73
2023-11-13T08:54:10.851Z,6.74
2023-11-13T08:56:42.413Z,6.83
2023-11-13T08:59:13.668Z,7.28
2023-11-13T09:01:45.051Z,7.56
2023-11-13T09:04:15.906Z,7.46
2023-11-13T09:06:46.635Z,7.57
2023-11-13T09:09:18.145Z,7.72
2023-11-13T09:11:48.847Z,7.85
2023-11-13T09:14:20.948Z,7.84
2023-11-13T09:16:51.530Z,8.00
2023-11-13T09:19:22.056Z,7.79
2023-11-13T09:21:54.408Z,8.05
2023-11-13T09:24:27.032Z,8.06
2023-11-13T09:26:58.206Z,7.98
2023-11-13T09:29:28.973Z,7.86
2023-11-13T09:31:59.723Z,7.90
2023-11-13T09:34:30.972Z,8.08
2023-11-13T09:37:02.849Z,8.13
2023-11-13T09:39:36.117Z,8.06
2023-11-13T09:42:15.677Z,8.13
2023-11-13T09:44:56.447Z,8.24
2023-11-13T09:47:26.458Z,8.22
2023-11-13T09:50:03.283Z,8.11
2023-11-13T09:52:35.740Z,8.26
2023-11-13T09:55:07.605Z,8.19
2023-11-13T09:57:40.868Z,8.46
2023-11-13T10:00:20.504Z,8.49
2023-11-13T10:02:54.257Z,8.26
2023-11-13T10:05:33.991Z,8.28
2023-11-13T10:08:04.896Z,8.38
2023-11-13T10:10:39.243Z,8.27
2023-11-13T10:13:15.587Z,8.40
2023-11-13T10:15:47.877Z,8.42
2023-11-13T10:18:21.742Z,8.40
2023-11-13T10:20:55.790Z,8.31
2023-11-13T10:23:30.208Z,8.34
2023-11-13T10:26:00.790Z,8.28
2023-11-13T10:28:41.595Z,8.37
2023-11-13T10:31:13.906Z,8.52
2023-11-13T10:34:03.534Z,8.38
2023-11-13T10:36:47.488Z,8.67
2023-11-13T10:39:30.936Z,8.49
2023-11-13T10:41:56.459Z,8.48
2023-11-13T10:44:28.862Z,8.55
2023-11-13T10:46:59.758Z,8.34
2023-11-13T10:49:30.599Z,8.14
2023-11-13T10:52:02.855Z,8.08
2023-11-13T10:54:35.291Z,8.08
2023-11-13T10:57:08.115Z,8.04
2023-11-13T10:59:38.809Z,7.96
2023-11-13T11:02:35.631Z,8.02
2023-11-13T11:05:15.183Z,8.39
2023-11-13T11:07:47.205Z,8.37
2023-11-13T11:10:19.788Z,8.70
2023-11-13T11:13:04.229Z,8.71
2023-11-13T11:15:49.896Z,8.54
2023-11-13T11:18:30.676Z,8.57
2023-11-13T11:21:19.144Z,8.54
2023-11-13T11:24:14.924Z,8.60
2023-11-13T11:27:02.553Z,8.70
2023-11-13T11:29:37.321Z,8.64
2023-11-13T11:32:21.790Z,8.77
2023-11-13T11:34:56.784Z,8.73
2023-11-13T11:37:33.831Z,8.62
2023-11-13T11:40:09.277Z,8.69
2023-11-13T11:42:41.438Z,8.70
2023-11-13T11:45:14.001Z,8.80
2023-11-13T11:47:52.155Z,8.77
2023-11-13T11:50:26.074Z,8.92
2023-11-13T11:52:59.060Z,8.94
2023-11-13T11:55:31.468Z,8.67
2023-11-13T11:58:03.412Z,8.72
2023-11-13T12:00:35.603Z,8.58
2023-11-13T12:03:08.863Z,8.68
2023-11-13T12:05:39.949Z,8.79
2023-11-13T12:08:14.493Z,8.71
2023-11-13T12:10:45.548Z,8.63
2023-11-13T12:13:20.400Z,8.69
2023-11-13T12:15:54.585Z,8.60
2023-11-13T12:18:28.919Z,8.56
2023-11-13T12:20:59.847Z,8.42
2023-11-13T12:23:32.546Z,8.42
2023-11-13T12:26:04.829Z,8.38
2023-11-13T12:28:36.097Z,8.25
2023-11-13T12:31:20.467Z,8.46
2023-11-13T12:33:52.962Z,8.48
2023-11-13T12:36:23.775Z,8.48
2023-11-13T12:38:55.403Z,8.36
2023-11-13T12:41:29.146Z,8.33
2023-11-13T12:44:01.593Z,8.28
2023-11-13T12:46:32.330Z,8.38
2023-11-13T12:49:06.324Z,8.37
2023-11-13T12:51:37.458Z,8.49
2023-11-13T12:54:11.788Z,8.58
2023-11-13T12:56:51.244Z,8.45
2023-11-13T12:59:24.812Z,8.70
2023-11-13T13:01:56.384Z,9.01
2023-11-13T13:04:28.645Z,8.92
2023-11-13T13:07:01.607Z,8.87
2023-11-13T13:09:33.610Z,8.91
2023-11-13T13:12:06.777Z,8.84
2023-11-13T13:14:37.923Z,8.92
2023-11-13T13:17:08.548Z,8.89
2023-11-13T13:19:39.357Z,8.96
2023-11-13T13:22:11.525Z,9.00
2023-11-13T13:24:43.722Z,9.03
2023-11-13T13:27:14.225Z,9.08
2023-11-13T13:29:44.817Z,8.98
2023-11-13T13:32:17.156Z,8.89
2023-11-13T13:34:50.764Z,8.94
2023-11-13T13:37:23.102Z,9.02
2023-11-13T13:39:55.625Z,8.98
2023-11-13T13:42:27.170Z,8.92
2023-11-13T13:44:58.778Z,8.78
2023-11-13T13:47:29.700Z,8.74
2023-11-13T13:50:00.357Z,8.62
2023-11-13T13:52:32.161Z,8.57
2023-11-13T13:55:04.586Z,8.58
2023-11-13T13:57:35.176Z,8.58
2023-11-13T14:00:07.830Z,8.68
2023-11-13T14:02:40.086Z,8.63
2023-11-13T14:05:12.142Z,8.66
2023-11-13T14:07:42.726Z,8.62
2023-11-13T14:10:15.701Z,8.58
2023-11-13T14:12:46.368Z,8.57
2023-11-13T14:15:18.618Z,8.69
2023-11-13T14:17:51.049Z,8.76
2023-11-13T14:20:23.410Z,8.69
2023-11-13T14:22:57.893Z,8.71
2023-11-13T14:25:28.167Z,8.70
2023-11-13T14:28:03.072Z,8.62
2023-11-13T14:30:34.072Z,8.62
2023-11-13T14:33:06.022Z,8.66
2023-11-13T14:35:37.005Z,8.81
2023-11-13T14:38:09.451Z,8.77
2023-11-13T14:40:44.084Z,8.76
2023-11-13T14:43:19.449Z,8.84
2023-11-13T14:45:50.015Z,8.74
2023-11-13T14:48:22.475Z,8.70
2023-11-13T14:50:53.067Z,8.72
2023-11-13T14:53:23.944Z,8.67
2023-11-13T14:55:55.955Z,8.63
2023-11-13T14:58:26.493Z,8.64
2023-11-13T15:00:57.232Z,8.60
2023-11-13T15:03:28.754Z,8.72
2023-11-13T15:06:00.267Z,8.59
2023-11-13T15:08:33.729Z,8.52
2023-11-13T15:11:07.398Z,8.58
2023-11-13T15:13:38.490Z,8.50
2023-11-13T15:16:12.065Z,8.58
2023-11-13T15:18:49.472Z,8.45
2023-11-13T15:21:16.682Z,8.46
2023-11-13T15:23:47.571Z,8.37
2023-11-13T15:26:20.580Z,8.41
2023-11-13T15:28:52.610Z,8.36
2023-11-13T15:31:24.784Z,8.37
2023-11-13T15:33:55.295Z,8.38
2023-11-13T15:36:27.188Z,8.48
2023-11-13T15:38:59.994Z,8.36
2023-11-13T15:41:36.868Z,8.41
2023-11-13T15:44:04.701Z,8.39
2023-11-13T15:46:36.212Z,8.35
2023-11-13T15:49:07.506Z,8.32
2023-11-13T15:51:38.571Z,8.45
2023-11-13T15:54:12.090Z,8.28
2023-11-13T15:56:42.660Z,8.44
2023-11-13T15:59:13.192Z,8.36
2023-11-13T16:01:49.294Z,8.36
2023-11-13T16:04:17.183Z,8.34
2023-11-13T16:06:58.152Z,8.30
2023-11-13T16:09:31.938Z,8.24
2023-11-13T16:12:05.845Z,8.24
2023-11-13T16:14:37.054Z,8.30
2023-11-13T16:17:08.794Z,8.24
2023-11-13T16:19:43.753Z,8.19
2023-11-13T16:22:13.761Z,8.26
2023-11-13T16:24:44.324Z,8.20
2023-11-13T16:27:15.269Z,8.17
2023-11-13T16:29:45.795Z,8.21
2023-11-13T16:32:17.310Z,8.25
2023-11-13T16:34:48.659Z,8.14
2023-11-13T16:37:21.346Z,8.23
2023-11-13T16:39:52.964Z,8.12
2023-11-13T16:42:26.166Z,8.26
2023-11-13T16:44:59.218Z,8.27
2023-11-13T16:47:31.451Z,8.18
2023-11-13T16:50:06.816Z,8.20
2023-11-13T16:52:39.003Z,8.14
2023-11-13T16:55:11.814Z,8.06
2023-11-13T16:57:42.538Z,8.08
2023-11-13T17:00:15.543Z,8.03
2023-11-13T17:02:49.876Z,8.15
2023-11-13T17:05:21.569Z,8.02
2023-11-13T17:07:53.396Z,8.02
2023-11-13T17:10:27.196Z,8.05
2023-11-13T17:12:58.976Z,8.08
2023-11-13T17:15:31.442Z,8.08
2023-11-13T17:18:02.252Z,7.93
2023-11-13T17:20:33.783Z,7.76
2023-11-13T17:23:06.509Z,7.61
2023-11-13T17:25:37.550Z,7.52
2023-11-13T17:28:08.272Z,7.46
2023-11-13T17:30:41.627Z,7.49
2023-11-13T17:33:12.239Z,7.26
2023-11-13T17:35:42.781Z,7.22
2023-11-13T17:38:15.070Z,7.28
2023-11-13T17:40:48.585Z,7.22
2023-11-13T17:43:21.228Z,7.24
2023-11-13T17:45:51.901Z,7.26
2023-11-13T17:48:23.536Z,7.32
2023-11-13T17:50:55.522Z,7.36
2023-11-13T17:53:26.133Z,7.32
2023-11-13T17:55:57.817Z,7.20
2023-11-13T17:58:28.837Z,7.25
2023-11-13T18:01:01.090Z,7.28
2023-11-13T18:03:32.390Z,7.34
2023-11-13T18:06:04.642Z,7.37
2023-11-13T18:08:35.595Z,7.22
2023-11-13T18:11:06.798Z,7.24
2023-11-13T18:13:37.591Z,7.26
2023-11-13T18:16:10.377Z,7.18
2023-11-13T18:18:40.955Z,7.29
2023-11-13T18:21:13.014Z,7.18
2023-11-13T18:23:44.405Z,7.38
2023-11-13T18:26:14.993Z,7.29
2023-11-13T18:28:49.203Z,7.30
2023-11-13T18:31:21.297Z,7.30
2023-11-13T18:33:51.820Z,7.28
2023-11-13T18:36:22.374Z,7.22
2023-11-13T18:38:59.512Z,7.16
2023-11-13T18:41:30.191Z,7.00
2023-11-13T18:44:01.594Z,7.02
2023-11-13T18:46:32.364Z,7.11
2023-11-13T18:49:04.757Z,7.12
2023-11-13T18:51:35.405Z,7.14
2023-11-13T18:54:06.956Z,7.10
2023-11-13T18:56:37.519Z,7.20
2023-11-13T18:59:08.055Z,7.15
2023-11-13T19:01:40.964Z,7.08
2023-11-13T19:04:10.898Z,7.10
2023-11-13T19:06:44.544Z,7.14
2023-11-13T19:09:21.776Z,7.08
2023-11-13T19:11:53.851Z,7.10
2023-11-13T19:14:24.720Z,7.08
2023-11-13T19:16:56.951Z,7.14
2023-11-13T19:19:29.578Z,7.27
2023-11-13T19:22:00.803Z,7.34
2023-11-13T19:24:31.393Z,7.35
2023-11-13T19:27:02.977Z,7.35
2023-11-13T19:29:35.471Z,7.40
2023-11-13T19:32:07.124Z,7.32
2023-11-13T19:34:39.574Z,7.34
2023-11-13T19:37:10.138Z,7.30
2023-11-13T19:39:40.646Z,7.32
2023-11-13T19:42:11.385Z,7.36
2023-11-13T19:44:50.658Z,7.34
2023-11-13T19:47:16.811Z,7.30
2023-11-13T19:49:53.852Z,7.32
2023-11-13T19:52:34.599Z,7.36
2023-11-13T19:55:05.574Z,7.34
2023-11-13T19:57:36.663Z,7.31
2023-11-13T20:00:09.682Z,7.24
2023-11-13T20:02:43.754Z,7.46
2023-11-13T20:05:14.622Z,7.32
2023-11-13T20:07:46.188Z,7.59
2023-11-13T20:10:17.988Z,7.60
2023-11-13T20:12:49.342Z,7.54
2023-11-13T20:15:23.684Z,7.58
2023-11-13T20:17:54.885Z,7.42
2023-11-13T20:20:26.670Z,7.46
2023-11-13T20:22:58.966Z,7.70
2023-11-13T20:25:31.048Z,7.74
2023-11-13T20:28:03.502Z,7.83
2023-11-13T20:30:35.762Z,8.00
2023-11-13T20:33:06.517Z,7.94
2023-11-13T20:35:37.357Z,7.95
2023-11-13T20:38:09.765Z,8.00
2023-11-13T20:40:43.693Z,7.94
2023-11-13T20:43:14.393Z,8.06
2023-11-13T20:45:45.561Z,7.97
2023-11-13T20:48:17.443Z,7.82
2023-11-13T20:50:47.999Z,7.80
2023-11-13T20:53:20.424Z,7.71
2023-11-13T20:55:52.715Z,7.77
2023-11-13T20:58:26.507Z,7.78
2023-11-13T21:00:59.559Z,7.92
2023-11-13T21:03:33.165Z,7.88
2023-11-13T21:06:08.008Z,7.83
2023-11-13T21:08:39.316Z,7.76
2023-11-13T21:11:10.625Z,7.90
2023-11-13T21:13:42.932Z,7.95
2023-11-13T21:16:13.962Z,8.04
2023-11-13T21:18:44.635Z,8.04
2023-11-13T21:21:16.040Z,8.10
2023-11-13T21:23:47.231Z,8.20
2023-11-13T21:26:18.942Z,8.20
2023-11-13T21:28:49.509Z,8.38
2023-11-13T21:31:20.342Z,8.34
2023-11-13T21:33:51.000Z,8.28
2023-11-13T21:36:23.146Z,8.25
2023-11-13T21:38:56.730Z,8.34
2023-11-13T21:41:28.685Z,8.40
2023-11-13T21:44:01.443Z,8.42
2023-11-13T21:46:33.055Z,8.42
2023-11-13T21:49:05.092Z,8.47
2023-11-13T21:51:42.601Z,8.42
2023-11-13T21:54:13.068Z,8.39
2023-11-13T21:56:43.959Z,8.52
2023-11-13T21:59:18.953Z,8.50
2023-11-13T22:01:49.732Z,8.54
2023-11-13T22:04:22.563Z,8.51
2023-11-13T22:06:55.097Z,8.44
2023-11-13T22:09:26.110Z,8.44
2023-11-13T22:11:56.685Z,8.44
2023-11-13T22:14:28.960Z,8.43
2023-11-13T22:17:03.411Z,8.52
2023-11-13T22:19:36.574Z,8.48
2023-11-13T22:22:08.541Z,8.52
2023-11-13T22:24:40.983Z,8.44
2023-11-13T22:27:11.179Z,8.45
2023-11-13T22:29:45.084Z,8.43
2023-11-13T22:32:15.762Z,8.54
2023-11-13T22:34:46.422Z,8.55
2023-11-13T22:37:18.227Z,8.52
2023-11-13T22:39:49.759Z,8.58
2023-11-13T22:42:21.101Z,8.52
2023-11-13T22:44:52.398Z,8.63
2023-11-13T22:47:22.968Z,8.56
2023-11-13T22:49:53.613Z,8.58
2023-11-13T22:52:25.665Z,8.57
2023-11-13T22:54:56.811Z,9.44
2023-11-13T22:57:27.359Z,10.10
2023-11-13T23:00:03.888Z,9.97
2023-11-13T23:02:39.183Z,9.54
2023-11-13T23:05:16.001Z,9.32
2023-11-13T23:07:50.064Z,9.33
2023-11-13T23:10:20.661Z,9.08
2023-11-13T23:12:54.628Z,9.08
2023-11-13T23:15:25.139Z,9.00
2023-11-13T23:17:59.172Z,8.92
2023-11-13T23:20:42.037Z,8.84
2023-11-13T23:23:03.434Z,8.87
2023-11-13T23:25:34.623Z,8.82
2023-11-13T23:28:05.729Z,8.76
2023-11-13T23:30:37.322Z,8.70
2023-11-13T23:33:09.739Z,8.75
2023-11-13T23:35:40.569Z,8.88
2023-11-13T23:38:11.990Z,8.82
2023-11-13T23:40:44.699Z,8.84
2023-11-13T23:43:18.492Z,8.76
2023-11-13T23:45:51.107Z,8.90
2023-11-13T23:48:24.234Z,8.80
2023-11-13T23:50:55.743Z,8.98
2023-11-13T23:53:26.158Z,9.06
2023-11-13T23:55:57.360Z,9.10
2023-11-13T23:58:28.615Z,9.23
